Stations météo

réclame
Mon MeteoGroup
Dortmund/Wickede, Allemagne (10416): Température de l'air & dewpoint: 16.07.2019 18:00:00 - 22.07.2019 18:00:00 (CEST)Dortmund/Wickede, Allemagne (10416): Vitesse du vent: 16.07.2019 18:00:00 - 22.07.2019 18:00:00 (CEST)Dortmund/Wickede, Allemagne (10416): Direction du vent: 16.07.2019 18:00:00 - 22.07.2019 18:00:00 (CEST)Dortmund/Wickede, Allemagne (10416): visibility: 16.07.2019 18:00:00 - 22.07.2019 18:00:00 (CEST)
Date & Time tt [°C] td [°C] ff [km/h] ff [knt] dd vv [km]
22.07.2019 18:00:00 28,0 14,0 11 6 - 10
22.07.2019 17:00:00 28,0 15,0 11 6 W 10
22.07.2019 16:00:00 27,0 14,0 18 10 WSW 10
22.07.2019 15:00:00 27,0 13,0 18 10 SW 10
22.07.2019 14:00:00 26,0 14,0 18 10 WSW 10
22.07.2019 13:00:00 25,0 12,0 21 11 WSW 10
22.07.2019 12:00:00 24,0 13,0 18 10 W 10
22.07.2019 11:00:00 23,0 13,0 22 12 WSW 10
22.07.2019 10:00:00 22,0 13,0 18 10 WSW 10
22.07.2019 09:00:00 20,0 13,0 18 10 SSW 10
22.07.2019 08:00:00 17,0 14,0 15 8 S 10
22.07.2019 07:00:00 16,0 14,0 15 8 S 10
22.07.2019 06:00:00 15,0 13,0 5 3 S 10
22.07.2019 05:00:00 15,0 13,0 5 3 S 10
22.07.2019 04:00:00 15,0 14,0 9 5 SSE 10
22.07.2019 03:00:00 15,0 14,0 9 5 SSE 10
22.07.2019 02:00:00 15,0 13,0 5 3 SSE 10
22.07.2019 01:00:00 16,0 12,0 0 0 N 10
22.07.2019 00:00:00 18,0 13,0 4 2 NW 10
21.07.2019 23:00:00 18,0 13,0 0 0 N 10
21.07.2019 22:00:00 19,0 13,0 4 2 WNW 10
21.07.2019 21:00:00 22,0 14,0 5 3 NW 10
21.07.2019 20:00:00 24,0 14,0 8 4 WNW 10
21.07.2019 19:00:00 24,0 14,0 8 4 WNW 10
21.07.2019 18:00:00 24,0 14,0 11 6 W 10
21.07.2019 17:00:00 24,0 14,0 11 6 W 10
21.07.2019 16:00:00 24,0 14,0 15 8 WSW 10
21.07.2019 15:00:00 24,0 15,0 16 9 WSW 10
21.07.2019 14:00:00 22,0 15,0 15 8 W 10
21.07.2019 13:00:00 21,0 16,0 16 9 WSW 10
21.07.2019 12:00:00 20,0 16,0 16 9 WSW 10
21.07.2019 11:00:00 18,0 15,0 13 7 WSW 10
21.07.2019 10:00:00 17,0 15,0 13 7 WSW 10
21.07.2019 09:00:00 17,0 15,0 15 8 WSW 10
21.07.2019 08:00:00 17,0 15,0 15 8 WSW 10
21.07.2019 07:00:00 16,0 14,0 16 9 SW 10
21.07.2019 06:00:00 15,0 14,0 16 9 SW 10
21.07.2019 05:00:00 16,0 14,0 13 7 SW 10
21.07.2019 04:00:00 16,0 14,0 11 6 SSW 10
21.07.2019 03:00:00 17,0 16,0 15 8 SW 10
21.07.2019 02:00:00 17,0 16,0 5 3 SW 10
21.07.2019 01:00:00 18,0 17,0 11 6 SSW 10
21.07.2019 00:00:00 17,0 16,0 11 6 WSW 10
20.07.2019 23:00:00 19,0 16,0 21 11 SSW 10
20.07.2019 22:00:00 19,0 16,0 16 9 S 10
20.07.2019 21:00:00 20,0 17,0 16 9 S 10
20.07.2019 20:00:00 19,0 18,0 11 6 S 10
20.07.2019 19:00:00 18,0 18,0 5 3 ENE 10
20.07.2019 18:00:00 19,0 18,0 4 2 - 10
20.07.2019 17:00:00 20,0 19,0 15 8 NE 10
20.07.2019 16:00:00 25,0 20,0 5 3 - 10
20.07.2019 15:00:00 23,0 18,0 16 9 SSW 10
20.07.2019 14:00:00 28,0 15,0 16 9 SW 10
20.07.2019 13:00:00 28,0 14,0 22 12 SW 10
20.07.2019 12:00:00 29,0 15,0 24 13 SSW 10
20.07.2019 11:00:00 27,0 15,0 22 12 SSW 10
20.07.2019 10:00:00 25,0 15,0 16 9 SSW 10
20.07.2019 09:00:00 23,0 15,0 15 8 S 10
20.07.2019 08:00:00 19,0 14,0 11 6 S 10
20.07.2019 07:00:00 17,0 13,0 11 6 SSE 10
20.07.2019 06:00:00 16,0 12,0 13 7 SSE 10
20.07.2019 05:00:00 16,0 12,0 13 7 SSE 10
20.07.2019 04:00:00 17,0 12,0 15 8 SSE 10
20.07.2019 03:00:00 17,0 12,0 13 7 SSE 10
20.07.2019 02:00:00 17,0 12,0 11 6 SSE 10
20.07.2019 01:00:00 18,0 12,0 9 5 SSE 10
20.07.2019 00:00:00 18,0 11,0 9 5 SSE 10
19.07.2019 23:00:00 19,0 11,0 9 5 S 10
19.07.2019 22:00:00 19,0 11,0 8 4 WSW 10
19.07.2019 21:00:00 22,0 12,0 9 5 WSW 10
19.07.2019 20:00:00 24,0 11,0 8 4 WSW 10
19.07.2019 19:00:00 24,0 11,0 9 5 WSW 10
19.07.2019 18:00:00 24,0 11,0 9 5 W 10
19.07.2019 17:00:00 25,0 12,0 16 9 WSW 10
19.07.2019 16:00:00 25,0 11,0 16 9 WSW 10
19.07.2019 15:00:00 25,0 12,0 15 8 WSW 10
19.07.2019 14:00:00 24,0 13,0 16 9 WSW 10
19.07.2019 13:00:00 24,0 15,0 15 8 WSW 10
19.07.2019 12:00:00 22,0 14,0 13 7 SW 10
19.07.2019 11:00:00 20,0 15,0 16 9 SW 10
19.07.2019 10:00:00 20,0 15,0 9 5 WSW 10
19.07.2019 09:00:00 19,0 16,0 15 8 SW 10
19.07.2019 08:00:00 18,0 15,0 13 7 SSW 10
19.07.2019 07:00:00 17,0 15,0 13 7 SSW 10
19.07.2019 06:00:00 16,0 14,0 9 5 S 10
19.07.2019 05:00:00 17,0 13,0 9 5 SSW 10
19.07.2019 04:00:00 16,0 14,0 5 3 WSW 10
19.07.2019 03:00:00 17,0 14,0 9 5 WSW 10
19.07.2019 02:00:00 18,0 13,0 9 5 WSW 10
19.07.2019 01:00:00 19,0 13,0 13 7 WSW 10
19.07.2019 00:00:00 19,0 12,0 11 6 SW 10
18.07.2019 23:00:00 19,0 11,0 8 4 WSW 10
18.07.2019 22:00:00 20,0 12,0 11 6 WSW 10
18.07.2019 21:00:00 22,0 12,0 8 4 WSW 10
18.07.2019 20:00:00 23,0 12,0 11 6 WSW 10
18.07.2019 19:00:00 23,0 13,0 15 8 SW 10
18.07.2019 18:00:00 24,0 12,0 18 10 SW 10
18.07.2019 17:00:00 23,0 12,0 24 13 SW 10
18.07.2019 16:00:00 26,0 11,0 21 11 WSW 10
18.07.2019 15:00:00 26,0 11,0 16 9 WSW 10
18.07.2019 14:00:00 25,0 11,0 11 6 WSW 10
18.07.2019 13:00:00 25,0 10,0 13 7 WSW 10
18.07.2019 12:00:00 24,0 12,0 5 3 - 10
18.07.2019 11:00:00 22,0 13,0 8 4 SSW 10
18.07.2019 10:00:00 19,0 13,0 5 3 S 10
18.07.2019 09:00:00 17,0 13,0 11 6 SSE 10
18.07.2019 08:00:00 14,0 12,0 9 5 SSE 10
18.07.2019 07:00:00 13,0 11,0 13 7 SSE 10
18.07.2019 06:00:00 12,0 11,0 11 6 SSE 10
18.07.2019 05:00:00 12,0 11,0 15 8 SSE 10
18.07.2019 04:00:00 12,0 11,0 8 4 SE 10
18.07.2019 03:00:00 12,0 11,0 11 6 S 10
18.07.2019 02:00:00 13,0 11,0 11 6 SSE 10
18.07.2019 01:00:00 13,0 11,0 8 4 SSE 10
18.07.2019 00:00:00 15,0 12,0 8 4 SSE 10
17.07.2019 23:00:00 14,0 11,0 8 4 SSE 10
17.07.2019 22:00:00 17,0 12,0 8 4 SE 10
17.07.2019 21:00:00 18,0 12,0 11 6 ESE 10
17.07.2019 20:00:00 20,0 12,0 5 3 ESE 10
17.07.2019 19:00:00 20,0 12,0 4 2 - 10
17.07.2019 18:00:00 19,0 12,0 8 4 ESE 10
17.07.2019 17:00:00 20,0 12,0 5 3 - 10
17.07.2019 16:00:00 19,0 12,0 2 1 - 10
17.07.2019 15:00:00 19,0 12,0 4 2 - 10
17.07.2019 14:00:00 18,0 12,0 5 3 WNW 10
17.07.2019 13:00:00 18,0 12,0 9 5 NW 10
17.07.2019 12:00:00 17,0 12,0 8 4 WNW 10
17.07.2019 11:00:00 17,0 12,0 8 4 NW 10
17.07.2019 10:00:00 16,0 12,0 5 3 NW 10
17.07.2019 09:00:00 15,0 12,0 8 4 NNE 10
17.07.2019 08:00:00 14,0 13,0 4 2 NE 10
17.07.2019 07:00:00 14,0 13,0 4 2 - 10
17.07.2019 06:00:00 14,0 13,0 4 2 - 10
17.07.2019 05:00:00 14,0 13,0 2 1 WSW 10
17.07.2019 04:00:00 13,0 12,0 2 1 NNW 10
17.07.2019 03:00:00 14,0 12,0 4 2 ESE 10
17.07.2019 02:00:00 15,0 12,0 2 1 - 10
17.07.2019 01:00:00 15,0 12,0 4 2 - 10
17.07.2019 00:00:00 16,0 12,0 9 5 ENE 10
16.07.2019 23:00:00 16,0 12,0 4 2 - 10
16.07.2019 22:00:00 16,0 12,0 4 2 - 10
16.07.2019 21:00:00 17,0 12,0 4 2 - 10
16.07.2019 20:00:00 17,0 11,0 8 4 WNW 10
16.07.2019 19:00:00 17,0 11,0 5 3 - 10
16.07.2019 18:00:00 17,0 11,0 8 4 - 10

tt = Température de l'air
td = dewpoint
ff = Vitesse du vent
dd = Direction du vent
vv = visibility

stations d'obs. à proximité